Time;durP1;ratioP1;P1;durP2;ratioP2;P2;SDS_P1;SDS_P2;PMS_P1;PMS_P2;Temp;Humidity;BMP_temperature;BMP_pressure;BME280_temperature;BME280_humidity;BME280_pressure;Samples;Min_cycle;Max_cycle;Signal;HPM_P1;HPM_P2
2020/12/16 00:01:54;;;;;;;55.47;12.63;;;;;;;7.91;100.00;100960.03;4997134;28;20109;-64
2020/12/16 00:04:22;;;;;;;50.10;12.03;;;;;;;7.88;100.00;100967.81;4997836;28;20113;-64
2020/12/16 00:06:48;;;;;;;44.67;11.40;;;;;;;7.91;100.00;100967.84;4995048;28;20026;-64
2020/12/16 00:09:14;;;;;;;47.53;12.37;;;;;;;7.93;100.00;100977.44;5000046;28;20029;-65
2020/12/16 00:11:39;;;;;;;58.03;13.03;;;;;;;7.94;100.00;100971.38;4995157;28;20034;-64
2020/12/16 00:14:05;;;;;;;56.97;12.43;;;;;;;7.97;100.00;100967.94;4998258;28;20393;-65
2020/12/16 00:16:32;;;;;;;59.57;14.13;;;;;;;7.96;100.00;100971.41;4999291;28;20491;-64
2020/12/16 00:18:58;;;;;;;53.43;13.57;;;;;;;7.96;100.00;100976.59;4999769;28;20493;-64
2020/12/16 00:21:23;;;;;;;66.80;12.97;;;;;;;8.03;100.00;100977.59;4993805;28;20045;-62
2020/12/16 00:23:49;;;;;;;67.70;14.90;;;;;;;8.02;100.00;100987.16;4999920;28;20030;-64
2020/12/16 00:26:15;;;;;;;63.87;13.63;;;;;;;8.04;100.00;100980.22;5000261;28;20026;-64
2020/12/16 00:28:41;;;;;;;65.03;13.57;;;;;;;8.07;100.00;100974.19;5000898;28;20026;-64
2020/12/16 00:31:07;;;;;;;55.47;13.33;;;;;;;8.09;100.00;100978.56;4996167;28;20512;-64
2020/12/16 00:33:33;;;;;;;54.10;12.93;;;;;;;8.05;100.00;100973.28;4998354;28;20036;-65
2020/12/16 00:35:59;;;;;;;40.97;11.07;;;;;;;8.02;100.00;100979.34;5000382;28;20037;-63
2020/12/16 00:38:24;;;;;;;37.07;11.23;;;;;;;8.02;100.00;100987.16;4997770;28;20034;-65
2020/12/16 00:40:50;;;;;;;34.10;10.37;;;;;;;8.05;100.00;100976.78;5003475;28;20053;-64
2020/12/16 00:43:15;;;;;;;33.43;11.57;;;;;;;8.07;100.00;100985.47;4997734;28;20485;-64
2020/12/16 00:45:40;;;;;;;35.53;11.50;;;;;;;8.03;100.00;100983.69;4998396;28;20029;-64
2020/12/16 00:48:06;;;;;;;34.13;10.17;;;;;;;8.05;100.00;100981.97;4998269;28;20030;-64
2020/12/16 00:50:31;;;;;;;33.27;10.07;;;;;;;8.02;100.00;100976.72;4998688;28;20056;-64
2020/12/16 00:52:57;;;;;;;31.53;10.63;;;;;;;8.02;100.00;100989.75;5004352;28;20046;-64
2020/12/16 00:55:22;;;;;;;31.37;10.53;;;;;;;8.05;100.00;100975.91;4995352;28;20034;-65
2020/12/16 00:57:47;;;;;;;31.23;10.37;;;;;;;8.03;100.00;100973.28;4995811;28;20409;-64
2020/12/16 01:00:15;;;;;;;33.30;9.77;;;;;;;8.00;100.00;100978.44;4996020;28;20036;-64
2020/12/16 01:02:44;;;;;;;31.97;10.23;;;;;;;8.00;100.00;100982.78;4998327;28;20021;-63
2020/12/16 01:05:11;;;;;;;28.83;9.43;;;;;;;7.96;100.00;100978.34;5001054;28;20026;-64
2020/12/16 01:07:41;;;;;;;30.93;10.37;;;;;;;7.90;100.00;100981.72;4999599;28;20128;-65
2020/12/16 01:10:08;;;;;;;26.93;8.57;;;;;;;7.84;100.00;100987.69;4996188;28;20037;-65
2020/12/16 01:12:41;;;;;;;32.80;9.53;;;;;;;7.79;100.00;100993.69;4999221;28;20147;-63
2020/12/16 01:15:09;;;;;;;27.93;10.73;;;;;;;7.78;100.00;100992.81;4999918;28;20041;-65
2020/12/16 01:17:38;;;;;;;29.37;8.83;;;;;;;7.79;100.00;100998.91;5001569;28;20033;-65
2020/12/16 01:20:05;;;;;;;29.70;10.13;;;;;;;7.80;100.00;101000.66;4999148;28;20513;-63
2020/12/16 01:22:30;;;;;;;25.80;9.17;;;;;;;7.77;100.00;100988.47;4995758;28;20018;-65
2020/12/16 01:24:56;;;;;;;30.53;9.27;;;;;;;7.72;100.00;100990.09;4996340;28;20493;-64
2020/12/16 01:27:21;;;;;;;24.13;8.70;;;;;;;7.67;100.00;100985.66;4996805;28;20030;-64
2020/12/16 01:29:47;;;;;;;22.27;7.90;;;;;;;7.61;100.00;100989.88;4994698;28;20057;-65
2020/12/16 01:32:14;;;;;;;27.37;9.00;;;;;;;7.52;100.00;100987.16;5001614;28;20549;-65
2020/12/16 01:34:40;;;;;;;27.13;9.17;;;;;;;7.40;100.00;100986.91;4994891;28;20500;-64
2020/12/16 01:37:05;;;;;;;26.10;9.23;;;;;;;7.29;100.00;100997.13;4993135;28;20030;-65
2020/12/16 01:39:30;;;;;;;28.00;9.60;;;;;;;7.21;100.00;101005.59;4995037;28;20062;-64
2020/12/16 01:41:56;;;;;;;31.10;9.23;;;;;;;7.18;100.00;101002.94;4998128;28;20029;-65
2020/12/16 01:44:22;;;;;;;30.57;8.83;;;;;;;7.16;100.00;100989.03;5001401;28;20026;-65
2020/12/16 01:46:53;;;;;;;30.13;9.10;;;;;;;7.19;100.00;100999.50;4996539;28;20029;-64
2020/12/16 01:49:20;;;;;;;27.07;9.67;;;;;;;7.16;100.00;100994.25;4996190;28;20030;-64
2020/12/16 01:51:47;;;;;;;33.33;9.73;;;;;;;7.10;100.00;100992.38;5001602;28;20117;-65
2020/12/16 01:54:15;;;;;;;31.07;9.30;;;;;;;7.01;100.00;100994.78;4998170;28;20034;-64
2020/12/16 01:56:41;;;;;;;33.33;9.67;;;;;;;6.91;100.00;100998.06;4996850;28;20152;-63
2020/12/16 01:59:13;;;;;;;32.67;8.77;;;;;;;6.95;100.00;101000.75;4993040;28;20026;-65
2020/12/16 02:01:41;;;;;;;32.13;10.48;;;;;;;6.97;100.00;101004.25;4999356;28;20034;-63
2020/12/16 02:04:11;;;;;;;33.30;8.43;;;;;;;6.99;100.00;101012.09;4994666;28;20113;-65
2020/12/16 02:06:39;;;;;;;34.97;9.23;;;;;;;6.94;100.00;101014.59;4993784;28;20581;-64
2020/12/16 02:09:07;;;;;;;32.03;9.07;;;;;;;6.92;100.00;101021.50;5000212;28;20414;-65
2020/12/16 02:11:35;;;;;;;37.43;8.13;;;;;;;6.90;100.00;101011.88;4996510;28;20022;-64
2020/12/16 02:14:03;;;;;;;30.40;9.03;;;;;;;6.92;100.00;101016.28;4990059;28;20026;-64
2020/12/16 02:16:29;;;;;;;32.83;9.13;;;;;;;6.90;100.00;101010.16;5002294;28;20433;-65
2020/12/16 02:18:54;;;;;;;26.90;7.87;;;;;;;6.86;100.00;101016.13;5001902;28;20069;-64
2020/12/16 02:21:20;;;;;;;30.23;8.77;;;;;;;6.81;100.00;101022.97;5003195;28;20026;-65
2020/12/16 02:23:47;;;;;;;27.77;8.23;;;;;;;6.76;100.00;101019.38;4998961;28;20026;-64
2020/12/16 02:26:14;;;;;;;27.57;8.27;;;;;;;6.73;100.00;101028.00;5002642;28;20444;-65
2020/12/16 02:28:40;;;;;;;33.67;8.23;;;;;;;6.73;100.00;101035.78;5001927;28;20058;-64
2020/12/16 02:31:05;;;;;;;30.30;8.30;;;;;;;6.77;100.00;101041.94;4998529;28;20064;-65
2020/12/16 02:33:30;;;;;;;27.80;7.53;;;;;;;6.74;100.00;101036.66;5003105;28;20029;-64
2020/12/16 02:35:56;;;;;;;29.10;8.03;;;;;;;6.74;100.00;101042.75;5003731;28;20030;-65
2020/12/16 02:38:21;;;;;;;33.83;8.57;;;;;;;6.78;100.00;101043.69;5005841;28;20113;-64
2020/12/16 02:40:47;;;;;;;24.30;7.37;;;;;;;6.84;100.00;101049.03;4996425;28;20049;-64
2020/12/16 02:43:12;;;;;;;28.03;7.77;;;;;;;6.85;100.00;101045.59;5006684;28;20095;-65
2020/12/16 02:45:38;;;;;;;25.37;7.70;;;;;;;6.81;100.00;101043.78;5002310;28;20080;-65
2020/12/16 02:48:03;;;;;;;28.57;8.50;;;;;;;6.78;100.00;101046.28;5002540;28;20093;-65
2020/12/16 02:50:28;;;;;;;26.63;8.77;;;;;;;6.79;100.00;101040.25;5004781;28;20048;-64
2020/12/16 02:52:54;;;;;;;26.43;8.33;;;;;;;6.82;100.00;101045.53;5001386;28;20022;-64
2020/12/16 02:55:19;;;;;;;26.13;7.67;;;;;;;6.83;100.00;101042.06;4985727;28;20627;-63
2020/12/16 02:57:44;;;;;;;26.80;8.07;;;;;;;6.86;100.00;101044.72;5003407;28;20048;-64
2020/12/16 03:00:10;;;;;;;25.30;8.33;;;;;;;6.90;100.00;101043.94;5010513;28;20037;-65
2020/12/16 03:02:35;;;;;;;28.13;8.53;;;;;;;6.93;100.00;101046.63;5009909;28;20014;-65
2020/12/16 03:05:01;;;;;;;28.93;7.97;;;;;;;6.99;100.00;101051.97;5009661;28;20101;-65
2020/12/16 03:07:26;;;;;;;31.20;8.63;;;;;;;6.98;100.00;101052.81;5010284;28;20104;-65
2020/12/16 03:09:51;;;;;;;25.73;7.83;;;;;;;6.96;100.00;101053.63;5010275;28;20436;-65
2020/12/16 03:12:17;;;;;;;30.37;7.83;;;;;;;6.96;100.00;101056.22;5004400;28;20097;-64
2020/12/16 03:14:43;;;;;;;30.97;8.87;;;;;;;6.95;100.00;101057.94;5008468;28;20030;-63
2020/12/16 03:17:08;;;;;;;27.60;8.63;;;;;;;6.90;100.00;101056.94;5012402;28;20030;-65
2020/12/16 03:19:34;;;;;;;26.00;7.93;;;;;;;6.85;100.00;101061.19;5010316;28;20022;-65
2020/12/16 03:22:00;;;;;;;30.37;8.30;;;;;;;6.79;100.00;101061.06;5010766;28;20088;-64
2020/12/16 03:24:26;;;;;;;25.23;8.23;;;;;;;6.72;100.00;101051.34;5010293;28;20511;-64
2020/12/16 03:26:51;;;;;;;29.50;8.50;;;;;;;6.69;100.00;101061.69;5009556;28;20056;-64
2020/12/16 03:29:16;;;;;;;34.60;9.23;;;;;;;6.65;100.00;101057.25;5008659;28;20022;-63
2020/12/16 03:31:42;;;;;;;29.27;8.67;;;;;;;6.60;100.00;101051.94;5011385;28;20331;-64
2020/12/16 03:34:08;;;;;;;36.90;9.40;;;;;;;6.66;100.00;101051.19;5009775;28;20026;-64
2020/12/16 03:36:34;;;;;;;33.20;9.17;;;;;;;6.72;100.00;101053.94;5011415;28;20396;-65
2020/12/16 03:39:00;;;;;;;31.17;9.47;;;;;;;6.73;100.00;101061.78;5011662;28;20466;-65
2020/12/16 03:41:25;;;;;;;33.57;9.37;;;;;;;6.72;100.00;101064.34;5010681;28;20022;-64
2020/12/16 03:43:51;;;;;;;28.13;8.30;;;;;;;6.69;100.00;101064.28;5009904;28;20538;-64
2020/12/16 03:46:16;;;;;;;33.27;9.53;;;;;;;6.63;100.00;101058.94;5009869;28;20104;-64
2020/12/16 03:48:43;;;;;;;35.43;9.30;;;;;;;6.54;100.00;101064.81;5011645;28;20061;-65
2020/12/16 03:51:13;;;;;;;32.77;9.37;;;;;;;6.44;100.00;101057.63;5010175;28;20026;-65
2020/12/16 03:53:40;;;;;;;30.70;9.23;;;;;;;6.40;100.00;101056.66;5004357;28;20021;-65
2020/12/16 03:56:10;;;;;;;36.07;10.07;;;;;;;6.32;100.00;101053.03;5010182;28;20034;-65
2020/12/16 03:58:44;;;;;;;38.23;8.73;;;;;;;6.19;100.00;101061.34;5008872;28;20057;-64
2020/12/16 04:01:10;;;;;;;41.67;10.60;;;;;;;6.11;100.00;101062.88;5010337;28;20268;-63
2020/12/16 04:03:36;;;;;;;38.43;10.17;;;;;;;6.01;100.00;101050.50;5008180;28;20056;-66
2020/12/16 04:06:01;;;;;;;43.13;10.00;;;;;;;5.97;100.00;101054.72;5010602;28;20265;-66
2020/12/16 04:08:27;;;;;;;51.70;11.33;;;;;;;5.97;100.00;101053.84;5006567;28;20037;-67
2020/12/16 04:10:52;;;;;;;57.07;11.63;;;;;;;5.96;100.00;101060.78;5003067;28;20028;-67
2020/12/16 04:13:18;;;;;;;55.90;12.27;;;;;;;5.87;100.00;101058.78;5010784;28;20033;-66
2020/12/16 04:15:45;;;;;;;69.97;12.83;;;;;;;5.83;100.00;101077.69;5007714;28;20100;-67
2020/12/16 04:18:10;;;;;;;65.13;12.53;;;;;;;5.82;100.00;101085.44;5010878;28;20033;-66
2020/12/16 04:20:36;;;;;;;73.03;13.60;;;;;;;5.87;100.00;101084.72;5008717;28;20304;-66
2020/12/16 04:23:03;;;;;;;78.00;13.77;;;;;;;5.84;100.00;101095.03;5008848;28;20021;-67
2020/12/16 04:25:28;;;;;;;79.83;14.13;;;;;;;5.80;100.00;101087.97;5009109;28;20416;-66
2020/12/16 04:27:54;;;;;;;74.97;13.77;;;;;;;5.84;100.00;101087.25;5008657;28;20272;-67
2020/12/16 04:30:19;;;;;;;84.30;14.40;;;;;;;5.84;100.00;101083.78;5009566;28;20033;-66
2020/12/16 04:32:49;;;;;;;67.40;13.00;;;;;;;5.74;100.00;101077.44;5010576;28;20026;-67
2020/12/16 04:35:14;;;;;;;69.30;11.97;;;;;;;5.61;100.00;101080.53;5007920;28;20454;-66
2020/12/16 04:37:40;;;;;;;75.73;12.67;;;;;;;5.47;100.00;101067.19;5010243;28;20280;-67
2020/12/16 04:40:05;;;;;;;81.70;14.03;;;;;;;5.49;100.00;101075.03;5009907;28;20072;-66
2020/12/16 04:42:31;;;;;;;76.30;13.50;;;;;;;5.44;100.00;101074.00;5007341;28;20018;-67
2020/12/16 04:44:56;;;;;;;81.30;14.97;;;;;;;5.37;100.00;101085.03;5009309;28;20175;-67
2020/12/16 04:47:22;;;;;;;77.23;14.93;;;;;;;5.36;100.00;101084.16;5009917;28;20075;-67
2020/12/16 04:49:47;;;;;;;101.03;14.67;;;;;;;5.37;100.00;101085.03;5010112;28;20080;-67
2020/12/16 04:52:20;;;;;;;112.57;16.03;;;;;;;5.30;100.00;101079.66;5007825;28;20033;-66
2020/12/16 04:54:45;;;;;;;96.72;15.80;;;;;;;5.23;100.00;101077.75;5008612;28;20029;-67
2020/12/16 04:57:12;;;;;;;123.10;17.23;;;;;;;5.24;100.00;101073.44;5008333;28;20025;-67
2020/12/16 04:59:37;;;;;;;126.60;17.33;;;;;;;5.21;100.00;101079.44;5010080;28;20037;-67
2020/12/16 05:02:04;;;;;;;150.93;16.43;;;;;;;5.17;100.00;101082.75;5007001;28;20277;-66
2020/12/16 05:04:29;;;;;;;164.73;18.70;;;;;;;5.16;100.00;101091.34;5007736;28;20520;-67
2020/12/16 05:06:54;;;;;;;118.03;16.93;;;;;;;4.97;100.00;101087.34;5009758;28;20308;-67
2020/12/16 05:09:20;;;;;;;131.13;16.93;;;;;;;4.96;100.00;101084.69;5009640;28;20440;-67
2020/12/16 05:11:48;;;;;;;153.40;17.97;;;;;;;4.86;100.00;101077.50;5008310;28;20022;-67
2020/12/16 05:14:16;;;;;;;160.57;18.17;;;;;;;4.90;100.00;101074.16;5007922;28;20064;-65
2020/12/16 05:16:55;;;;;;;205.53;18.83;;;;;;;4.88;100.00;101068.94;5008077;28;20284;-67
2020/12/16 05:19:44;;;;;;;278.63;21.80;;;;;;;4.83;100.00;101078.25;5009912;28;20740;-66
2020/12/16 05:22:23;;;;;;;331.37;22.47;;;;;;;4.68;100.00;101083.84;5009659;28;20264;-67
2020/12/16 05:24:53;;;;;;;378.43;25.97;;;;;;;4.67;100.00;101097.63;5008877;28;20316;-67
2020/12/16 05:27:22;;;;;;;381.87;25.93;;;;;;;4.84;100.00;101092.09;5008104;28;20289;-67
2020/12/16 05:29:56;;;;;;;459.10;30.37;;;;;;;4.97;100.00;101095.13;5008330;28;20284;-64
2020/12/16 05:32:27;;;;;;;369.87;24.77;;;;;;;5.17;100.00;101093.09;5011422;28;20327;-67
2020/12/16 05:34:53;;;;;;;314.67;23.60;;;;;;;5.30;100.00;101089.16;5009603;28;20344;-67
2020/12/16 05:37:32;;;;;;;360.90;24.90;;;;;;;5.29;100.00;101088.28;5008259;28;20261;-67
2020/12/16 05:40:06;;;;;;;291.57;20.30;;;;;;;5.20;100.00;101093.19;5009852;28;20269;-68
2020/12/16 05:42:32;;;;;;;281.13;21.07;;;;;;;5.10;100.00;101090.31;5009038;28;20281;-67
2020/12/16 05:45:09;;;;;;;257.13;19.27;;;;;;;5.00;100.00;101094.34;5008352;28;20299;-66
2020/12/16 05:47:34;;;;;;;195.90;16.63;;;;;;;4.80;100.00;101085.06;5008704;28;20029;-66
2020/12/16 05:50:00;;;;;;;150.27;15.27;;;;;;;4.60;100.00;101087.94;5008451;28;20280;-67
2020/12/16 05:52:25;;;;;;;217.63;18.73;;;;;;;4.58;100.00;101088.69;5008258;28;20029;-67
2020/12/16 05:54:52;;;;;;;172.97;15.93;;;;;;;4.55;100.00;101094.66;5007863;28;20129;-66
2020/12/16 05:57:24;;;;;;;160.40;14.67;;;;;;;4.54;100.00;101092.88;5009046;28;20706;-65
2020/12/16 06:00:09;;;;;;;;;;;;;;;4.53;100.00;101092.84;5008446;28;20648;-67
2020/12/16 06:02:39;;;;;;;146.23;15.13;;;;;;;4.46;100.00;101094.34;5004324;28;20269;-68
2020/12/16 06:05:16;;;;;;;128.63;12.97;;;;;;;4.40;100.00;101094.16;5009269;28;20783;-66
2020/12/16 06:07:46;;;;;;;133.73;13.67;;;;;;;4.31;100.00;101096.44;5008692;28;20624;-67
2020/12/16 06:10:12;;;;;;;119.57;14.47;;;;;;;4.26;100.00;101104.06;5010881;28;20284;-67
2020/12/16 06:12:40;;;;;;;179.10;15.13;;;;;;;4.22;100.00;101103.88;5008637;28;20284;-66
2020/12/16 06:15:11;;;;;;;160.20;14.83;;;;;;;4.19;100.00;101108.97;5008789;28;20632;-66
2020/12/16 06:17:45;;;;;;;199.63;15.97;;;;;;;4.15;100.00;101112.28;5006511;28;20375;-65
2020/12/16 06:20:17;;;;;;;167.47;15.37;;;;;;;4.10;100.00;101120.75;5007168;28;20312;-66
2020/12/16 06:22:44;;;;;;;120.22;12.68;;;;;;;4.07;100.00;101125.84;5007067;28;20265;-66
2020/12/16 06:25:17;;;;;;;193.67;15.80;;;;;;;4.03;100.00;101118.81;5008233;28;20042;-66
2020/12/16 06:27:50;;;;;;;149.23;14.13;;;;;;;4.03;100.00;101118.81;5008938;28;20338;-66
2020/12/16 06:30:19;;;;;;;177.77;14.70;;;;;;;4.00;100.00;101118.72;5007467;28;20975;-66
2020/12/16 06:32:52;;;;;;;204.50;15.50;;;;;;;3.96;100.00;101114.25;5008136;28;20280;-66
2020/12/16 06:35:18;;;;;;;;;;;;;;;3.96;100.00;101116.81;5007807;28;20288;-65
2020/12/16 06:37:44;;;;;;;116.50;12.17;;;;;;;3.93;100.00;101115.84;5008083;28;19913;-64
2020/12/16 06:40:10;;;;;;;118.23;11.97;;;;;;;3.89;100.00;101120.03;5007425;28;20287;-65
2020/12/16 06:42:36;;;;;;;82.17;10.77;;;;;;;3.86;100.00;101114.75;5008973;28;20277;-65
2020/12/16 06:45:15;;;;;;;101.77;11.90;;;;;;;3.82;100.00;101112.88;5008274;28;20034;-66
2020/12/16 06:47:40;;;;;;;108.60;12.57;;;;;;;3.78;100.00;101111.03;5007950;28;20026;-64
2020/12/16 06:50:19;;;;;;;105.77;11.37;;;;;;;3.76;100.00;101107.50;5006566;28;20295;-65
2020/12/16 06:52:44;;;;;;;169.47;14.53;;;;;;;3.74;100.00;101122.06;5005048;28;20026;-65
2020/12/16 06:55:10;;;;;;;158.20;13.40;;;;;;;3.70;100.00;101123.66;5008499;28;20280;-65
2020/12/16 06:57:50;;;;;;;170.33;14.87;;;;;;;3.72;100.00;101126.31;5005606;28;20033;-65
2020/12/16 07:00:21;;;;;;;102.43;11.20;;;;;;;3.73;100.00;101128.06;5006850;28;20105;-65
2020/12/16 07:02:48;;;;;;;110.90;12.47;;;;;;;3.73;100.00;101126.34;5008930;28;20756;-65
2020/12/16 07:05:45;;;;;;;132.80;13.57;;;;;;;3.75;100.00;101126.41;5009534;28;20268;-65
2020/12/16 07:08:11;;;;;;;89.53;10.80;;;;;;;3.76;100.00;101128.19;4957662;28;20772;-65
2020/12/16 07:10:41;;;;;;;80.50;10.33;;;;;;;3.75;100.00;101121.22;5011328;28;20334;-66
2020/12/16 07:13:14;;;;;;;72.17;10.20;;;;;;;3.72;100.00;101126.31;5008420;28;20117;-66
2020/12/16 07:15:53;;;;;;;72.27;8.77;;;;;;;3.68;100.00;101129.63;5011604;28;20276;-65
2020/12/16 07:18:51;;;;;;;62.27;8.73;;;;;;;3.63;100.00;101131.13;5008365;28;20288;-66
2020/12/16 07:21:22;;;;;;;56.40;9.17;;;;;;;3.60;100.00;101136.19;4994187;28;20304;-64
2020/12/16 07:23:54;;;;;;;95.45;10.85;;;;;;;3.57;100.00;101141.28;5009119;28;20305;-65
2020/12/16 07:26:27;;;;;;;122.53;11.93;;;;;;;3.59;100.00;101149.97;5010430;28;20440;-65
2020/12/16 07:28:53;;;;;;;;;;;;;;;3.60;100.00;101147.44;5011009;28;20395;-65
2020/12/16 07:31:18;;;;;;;99.33;10.53;;;;;;;3.61;100.00;101145.72;5011812;28;20013;-65
2020/12/16 07:33:44;;;;;;;86.30;9.67;;;;;;;3.59;100.00;101147.38;5011771;28;20493;-65
2020/12/16 07:36:10;;;;;;;118.00;12.63;;;;;;;3.62;100.00;101144.88;5012173;28;20105;-65
2020/12/16 07:38:37;;;;;;;110.13;12.27;;;;;;;3.63;100.00;101146.66;5009950;28;20030;-66
2020/12/16 07:41:03;;;;;;;111.83;11.43;;;;;;;3.66;100.00;101152.84;5006104;28;20033;-64
2020/12/16 07:43:28;;;;;;;78.10;10.63;;;;;;;3.69;100.00;101152.06;5007549;28;20272;-65
2020/12/16 07:46:04;;;;;;;116.97;12.20;;;;;;;3.71;100.00;101158.16;5009150;28;20165;-66
2020/12/16 07:48:55;;;;;;;88.90;11.53;;;;;;;3.72;100.00;101167.69;5011792;28;20465;-67
2020/12/16 07:51:20;;;;;;;76.73;9.50;;;;;;;3.70;100.00;101164.16;5010984;28;20351;-66
2020/12/16 07:53:49;;;;;;;56.33;9.27;;;;;;;3.72;100.00;101167.69;5011415;28;20285;-67
2020/12/16 07:56:17;;;;;;;130.23;13.10;;;;;;;3.70;100.00;101170.22;5012169;28;20279;-67
2020/12/16 07:58:43;;;;;;;112.30;13.10;;;;;;;3.72;100.00;101162.50;5011840;28;20284;-65
2020/12/16 08:01:14;;;;;;;113.23;12.83;;;;;;;3.73;100.00;101169.44;5010747;28;20265;-66
2020/12/16 08:03:41;;;;;;;100.40;13.80;;;;;;;3.75;100.00;101162.63;5011592;28;20108;-67
2020/12/16 08:06:07;;;;;;;133.03;15.40;;;;;;;3.80;100.00;101161.97;5011444;28;20033;-66
2020/12/16 08:08:42;;;;;;;136.37;13.93;;;;;;;3.85;100.00;101169.88;5011552;28;20756;-66
2020/12/16 08:11:15;;;;;;;121.77;13.40;;;;;;;3.89;100.00;101163.13;5010925;28;20352;-66
2020/12/16 08:13:41;;;;;;;85.50;10.90;;;;;;;3.94;100.00;101170.22;4996821;28;20320;-66
2020/12/16 08:16:08;;;;;;;125.60;13.37;;;;;;;3.93;100.00;101158.13;5010047;28;20327;-67
2020/12/16 08:18:33;;;;;;;110.50;12.97;;;;;;;3.97;100.00;101159.97;5010779;28;20069;-66
2020/12/16 08:20:59;;;;;;;86.63;11.27;;;;;;;4.01;100.00;101176.50;5009956;28;20276;-66
2020/12/16 08:23:25;;;;;;;83.90;11.37;;;;;;;3.99;100.00;101173.84;5010412;28;20523;-67
2020/12/16 08:25:51;;;;;;;107.40;11.87;;;;;;;4.03;100.00;101170.56;5010484;28;20018;-67
2020/12/16 08:28:25;;;;;;;83.87;10.73;;;;;;;4.02;100.00;101173.97;5011769;28;20045;-68
2020/12/16 08:30:52;;;;;;;88.60;10.53;;;;;;;4.03;100.00;101173.16;5010838;28;20057;-67
2020/12/16 08:33:18;;;;;;;88.23;10.57;;;;;;;4.06;100.00;101170.66;5010844;28;20851;-66
2020/12/16 08:35:57;;;;;;;83.83;10.27;;;;;;;4.07;100.00;101172.41;5009429;28;20276;-66
2020/12/16 08:38:30;;;;;;;91.10;10.83;;;;;;;4.11;100.00;101173.41;5010752;28;20334;-67
2020/12/16 08:40:57;;;;;;;76.67;10.97;;;;;;;4.17;100.00;101172.75;5007378;28;20340;-66
2020/12/16 08:43:29;;;;;;;54.60;9.53;;;;;;;4.20;100.00;101180.63;5010318;28;20645;-64
2020/12/16 08:46:08;;;;;;;66.65;10.18;;;;;;;4.25;100.00;101173.91;5010652;28;20253;-65
2020/12/16 08:49:03;;;;;;;76.50;11.40;;;;;;;4.29;100.00;101174.06;5008269;28;20030;-65
2020/12/16 08:51:31;;;;;;;40.23;9.93;;;;;;;4.38;100.00;101178.69;5008254;28;20275;-65
2020/12/16 08:53:59;;;;;;;35.60;8.97;;;;;;;4.43;100.00;101177.09;5009920;28;20281;-66
2020/12/16 08:56:45;;;;;;;47.03;10.20;;;;;;;4.44;100.00;101176.28;5008726;28;20300;-65
2020/12/16 08:59:37;;;;;;;53.13;10.43;;;;;;;4.48;100.00;101180.72;5009290;28;20273;-64
2020/12/16 09:02:03;;;;;;;71.75;11.63;;;;;;;4.50;100.00;101186.84;5005867;28;20663;-65
2020/12/16 09:04:34;;;;;;;52.13;9.47;;;;;;;4.52;100.00;101190.38;5010072;28;20030;-65
2020/12/16 09:07:09;;;;;;;43.67;8.40;;;;;;;4.54;100.00;101186.13;5006034;28;20034;-66
2020/12/16 09:09:37;;;;;;;55.37;8.70;;;;;;;4.62;100.00;101183.81;5009639;28;20819;-65
2020/12/16 09:12:10;;;;;;;57.73;10.13;;;;;;;4.63;100.00;101181.25;5010366;28;20285;-64
2020/12/16 09:14:35;;;;;;;45.87;9.17;;;;;;;4.67;100.00;101190.88;4976793;28;20968;-66
2020/12/16 09:17:08;;;;;;;60.80;9.87;;;;;;;4.71;100.00;101182.38;5009029;28;20284;-65
2020/12/16 09:19:34;;;;;;;;;;;;;;;4.78;100.00;101187.75;5010959;28;20744;-65
2020/12/16 09:22:01;;;;;;;44.47;9.30;;;;;;;4.86;100.00;101186.31;5010203;28;19917;-65
2020/12/16 09:24:27;;;;;;;59.80;10.30;;;;;;;4.85;100.00;101187.16;5009339;28;20276;-65
2020/12/16 09:26:55;;;;;;;45.03;9.30;;;;;;;4.92;100.00;101184.78;5010241;28;20411;-65
2020/12/16 09:29:29;;;;;;;35.73;10.07;;;;;;;4.97;100.00;101192.72;5009208;28;20022;-65
2020/12/16 09:32:15;;;;;;;32.57;9.13;;;;;;;5.01;100.00;101194.56;5009657;28;20772;-66
2020/12/16 09:34:43;;;;;;;44.03;10.37;;;;;;;5.06;100.00;101203.34;5005659;28;20268;-65
2020/12/16 09:37:15;;;;;;;46.03;10.77;;;;;;;5.13;100.00;101205.34;5009310;28;20822;-65
2020/12/16 09:39:41;;;;;;;43.47;10.83;;;;;;;5.16;100.00;101195.03;5009570;28;20277;-65
2020/12/16 09:42:09;;;;;;;51.03;12.53;;;;;;;5.25;100.00;101194.47;5009631;28;20272;-64
2020/12/16 09:44:34;;;;;;;53.93;11.97;;;;;;;5.29;100.00;101193.72;5009431;28;20280;-66
2020/12/16 09:47:15;;;;;;;40.83;10.57;;;;;;;5.39;100.00;101187.09;5008506;28;20284;-65
2020/12/16 09:49:42;;;;;;;42.77;10.53;;;;;;;5.48;100.00;101197.75;5009286;28;20389;-65
2020/12/16 09:52:28;;;;;;;43.10;11.10;;;;;;;5.57;100.00;101195.41;5009564;28;20879;-66
2020/12/16 09:54:54;;;;;;;42.80;12.03;;;;;;;5.62;100.00;101196.44;5007690;28;20289;-66
2020/12/16 09:57:21;;;;;;;42.87;12.17;;;;;;;5.69;100.00;101195.78;5009500;28;20832;-65
2020/12/16 09:59:47;;;;;;;44.87;10.20;;;;;;;5.78;100.00;101200.38;5009172;28;20022;-65
2020/12/16 10:02:12;;;;;;;47.93;12.50;;;;;;;5.86;100.00;101185.91;5009216;28;20268;-65
2020/12/16 10:04:38;;;;;;;41.00;11.63;;;;;;;5.97;100.00;101183.66;5008489;28;20658;-65
2020/12/16 10:07:03;;;;;;;41.27;12.67;;;;;;;6.02;100.00;101195.03;5009313;28;20034;-65
2020/12/16 10:09:28;;;;;;;50.83;12.57;;;;;;;6.07;100.00;101183.06;5009975;28;20381;-65
2020/12/16 10:11:54;;;;;;;43.93;12.33;;;;;;;6.12;100.00;101182.34;5009325;28;20022;-64
2020/12/16 10:14:19;;;;;;;45.13;12.20;;;;;;;6.23;100.00;101172.25;5009436;28;20104;-64
2020/12/16 10:16:48;;;;;;;36.60;11.07;;;;;;;6.27;100.00;101171.47;5009377;28;20026;-66
2020/12/16 10:19:16;;;;;;;33.87;10.27;;;;;;;6.41;100.00;101167.50;5008263;28;20421;-65
2020/12/16 10:21:42;;;;;;;38.90;10.90;;;;;;;6.43;100.00;101171.06;5007800;28;20357;-65
2020/12/16 10:24:08;;;;;;;35.07;10.83;;;;;;;6.47;100.00;101175.47;5009807;28;20363;-65
2020/12/16 10:26:33;;;;;;;39.67;11.57;;;;;;;6.52;100.00;101178.19;5009836;28;20272;-64
2020/12/16 10:28:59;;;;;;;34.57;12.10;;;;;;;6.54;100.00;101173.03;5009941;28;20604;-65
2020/12/16 10:31:24;;;;;;;41.23;11.40;;;;;;;6.57;100.00;101165.34;5000280;28;20034;-65
2020/12/16 10:33:49;;;;;;;45.37;12.17;;;;;;;6.60;100.00;101170.59;4990721;28;20058;-65
2020/12/16 10:36:15;;;;;;;38.43;11.63;;;;;;;6.61;100.00;101162.84;5007232;28;20108;-65
2020/12/16 10:38:40;;;;;;;39.93;11.47;;;;;;;6.63;100.00;101174.16;5006194;28;20057;-64
2020/12/16 10:41:06;;;;;;;44.20;12.70;;;;;;;6.62;100.00;101167.19;5011066;28;20109;-65
2020/12/16 10:43:31;;;;;;;37.47;11.63;;;;;;;6.53;100.00;101171.28;5012556;28;20033;-65
2020/12/16 10:45:57;;;;;;;32.40;11.17;;;;;;;6.51;100.00;101167.75;5012979;28;20053;-65
2020/12/16 10:48:22;;;;;;;35.97;11.20;;;;;;;6.55;100.00;101175.69;5013362;28;20030;-65
2020/12/16 10:50:47;;;;;;;34.50;10.33;;;;;;;6.63;100.00;101168.06;5012278;28;20567;-65
2020/12/16 10:53:13;;;;;;;30.33;10.83;;;;;;;6.64;100.00;101159.44;5012411;28;20037;-65
2020/12/16 10:55:38;;;;;;;35.40;11.57;;;;;;;6.68;100.00;101156.09;5012891;28;20041;-65
2020/12/16 10:58:04;;;;;;;31.50;10.00;;;;;;;6.72;100.00;101152.72;5012428;28;20405;-65
2020/12/16 11:00:29;;;;;;;33.33;10.03;;;;;;;6.81;100.00;101152.94;5012646;28;20053;-65
2020/12/16 11:02:55;;;;;;;29.03;9.93;;;;;;;6.87;100.00;101137.47;5010339;28;20025;-66
2020/12/16 11:05:20;;;;;;;31.97;10.20;;;;;;;6.95;100.00;101146.34;5011546;28;20074;-65
2020/12/16 11:07:46;;;;;;;35.70;10.27;;;;;;;6.99;100.00;101148.16;4991217;28;20034;-65
2020/12/16 11:10:11;;;;;;;29.97;11.10;;;;;;;7.09;100.00;101144.06;4998893;28;20030;-66
2020/12/16 11:12:36;;;;;;;29.30;10.37;;;;;;;7.15;100.00;101143.28;5012703;28;20480;-64
2020/12/16 11:15:02;;;;;;;32.00;9.83;;;;;;;7.20;100.00;101157.31;5013227;28;20105;-66
2020/12/16 11:17:28;;;;;;;27.30;9.47;;;;;;;7.31;100.00;101158.41;5012825;28;20021;-66